createdAt,value
2022-11-04T00:01:07.744Z,11.27
2022-11-04T00:04:15.082Z,10.23
2022-11-04T00:07:35.440Z,10.20
2022-11-04T00:14:24.638Z,9.40
2022-11-04T00:17:27.420Z,10.43
2022-11-04T00:20:44.095Z,10.47
2022-11-04T00:24:08.175Z,9.27
2022-11-04T00:27:29.804Z,10.17
2022-11-04T00:30:33.937Z,10.03
2022-11-04T00:33:35.764Z,10.10
2022-11-04T00:36:51.591Z,10.57
2022-11-04T00:39:54.362Z,10.97
2022-11-04T00:42:57.166Z,10.17
2022-11-04T00:46:01.269Z,9.57
2022-11-04T00:49:04.130Z,10.17
2022-11-04T00:52:06.920Z,10.20
2022-11-04T00:55:10.139Z,10.20
2022-11-04T00:58:13.262Z,10.53
2022-11-04T01:01:18.604Z,11.47
2022-11-04T01:04:21.548Z,10.40
2022-11-04T01:07:24.375Z,10.07
2022-11-04T01:10:27.207Z,10.87
2022-11-04T01:13:30.098Z,10.00
2022-11-04T01:16:38.122Z,10.47
2022-11-04T01:19:40.883Z,10.77
2022-11-04T01:22:43.748Z,10.63
2022-11-04T01:25:46.715Z,10.77
2022-11-04T01:28:49.938Z,11.90
2022-11-04T01:31:54.009Z,10.63
2022-11-04T01:34:58.780Z,11.03
2022-11-04T01:38:01.741Z,10.80
2022-11-04T01:41:05.878Z,10.97
2022-11-04T01:44:45.477Z,11.50
2022-11-04T01:47:56.447Z,11.13
2022-11-04T01:51:07.778Z,10.63
2022-11-04T01:54:12.612Z,11.47
2022-11-04T01:57:19.653Z,10.40
2022-11-04T02:00:22.885Z,11.87
2022-11-04T02:03:31.016Z,11.87
2022-11-04T02:06:33.850Z,11.40
2022-11-04T02:09:39.250Z,11.50
2022-11-04T02:12:50.742Z,12.57
2022-11-04T02:15:58.364Z,11.47
2022-11-04T02:19:14.889Z,12.30
2022-11-04T02:22:42.668Z,12.00
2022-11-04T02:26:08.674Z,10.83
2022-11-04T02:29:38.391Z,11.50
2022-11-04T02:33:07.903Z,11.13
2022-11-04T02:36:17.446Z,11.90
2022-11-04T02:39:28.435Z,11.63
2022-11-04T02:42:38.827Z,11.83
2022-11-04T02:45:47.733Z,11.53
2022-11-04T02:48:57.798Z,10.57
2022-11-04T02:52:04.639Z,12.10
2022-11-04T02:55:14.146Z,11.93
2022-11-04T02:58:22.806Z,12.30
2022-11-04T03:01:32.362Z,11.30
2022-11-04T03:04:41.326Z,12.20
2022-11-04T03:07:47.830Z,11.03
2022-11-04T03:10:54.253Z,11.60
2022-11-04T03:14:02.792Z,11.93
2022-11-04T03:17:15.439Z,11.50
2022-11-04T03:20:22.515Z,10.43
2022-11-04T03:23:25.347Z,10.70
2022-11-04T03:26:33.355Z,11.77
2022-11-04T03:29:41.300Z,11.90
2022-11-04T03:32:52.708Z,12.27
2022-11-04T03:35:57.026Z,11.70
2022-11-04T03:38:59.941Z,11.67
2022-11-04T03:42:20.717Z,10.87
2022-11-04T03:45:24.574Z,10.53
2022-11-04T03:48:35.486Z,12.23
2022-11-04T03:51:38.236Z,12.97
2022-11-04T03:54:41.550Z,12.27
2022-11-04T03:57:53.244Z,11.97
2022-11-04T04:01:04.540Z,13.20
2022-11-04T04:04:16.854Z,10.47
2022-11-04T04:07:25.150Z,12.43
2022-11-04T04:10:42.055Z,13.10
2022-11-04T04:14:02.019Z,12.33
2022-11-04T04:20:21.433Z,12.67
2022-11-04T04:23:46.607Z,13.03
2022-11-04T04:27:08.235Z,12.40
2022-11-04T04:30:13.706Z,12.80
2022-11-04T04:33:19.933Z,13.10
2022-11-04T04:36:28.005Z,11.93
2022-11-04T04:40:07.797Z,12.77
2022-11-04T04:43:34.450Z,14.20
2022-11-04T04:46:38.915Z,12.60
2022-11-04T04:49:50.849Z,13.67
2022-11-04T04:52:57.730Z,12.60
2022-11-04T04:56:00.515Z,12.20
2022-11-04T04:59:03.279Z,12.30
2022-11-04T05:02:06.212Z,12.93
2022-11-04T05:05:09.742Z,12.70
2022-11-04T05:08:13.892Z,12.23
2022-11-04T05:11:17.462Z,12.60
2022-11-04T05:14:21.836Z,12.37
2022-11-04T05:17:24.600Z,13.07
2022-11-04T05:20:28.918Z,11.87
2022-11-04T05:23:33.132Z,12.93
2022-11-04T05:26:40.115Z,13.10
2022-11-04T05:29:43.619Z,13.53
2022-11-04T05:32:46.453Z,12.73
2022-11-04T05:35:49.297Z,12.97
2022-11-04T05:38:55.561Z,13.10
2022-11-04T05:41:58.706Z,12.33
2022-11-04T05:45:01.426Z,12.87
2022-11-04T05:48:06.153Z,12.63
2022-11-04T05:51:14.149Z,11.60
2022-11-04T05:54:18.341Z,12.33
2022-11-04T05:57:21.202Z,11.40
2022-11-04T06:00:24.192Z,13.13
2022-11-04T06:03:27.017Z,12.87
2022-11-04T06:06:32.557Z,12.67
2022-11-04T06:09:39.970Z,12.90
2022-11-04T06:12:42.785Z,12.03
2022-11-04T06:15:45.651Z,12.93
2022-11-04T06:18:48.492Z,12.83
2022-11-04T06:21:51.260Z,13.47
2022-11-04T06:24:55.372Z,12.53
2022-11-04T06:27:58.226Z,13.43
2022-11-04T06:31:02.308Z,12.90
2022-11-04T06:34:05.447Z,12.10
2022-11-04T06:37:09.305Z,13.90
2022-11-04T06:40:13.873Z,13.13
2022-11-04T06:43:19.820Z,14.00
2022-11-04T06:46:28.136Z,14.87
2022-11-04T06:49:30.976Z,14.20
2022-11-04T06:52:38.053Z,15.17
2022-11-04T06:55:45.522Z,14.70
2022-11-04T06:58:49.813Z,14.10
2022-11-04T07:01:52.838Z,14.47
2022-11-04T07:08:11.615Z,14.90
2022-11-04T07:11:16.200Z,14.23
2022-11-04T07:14:19.096Z,14.43
2022-11-04T07:17:21.853Z,13.80
2022-11-04T07:20:25.082Z,14.23
2022-11-04T07:23:28.069Z,15.30
2022-11-04T07:26:32.300Z,14.77
2022-11-04T07:29:35.165Z,16.37
2022-11-04T07:32:37.980Z,14.93
2022-11-04T07:35:40.758Z,14.63
2022-11-04T07:38:47.236Z,15.37
2022-11-04T07:41:53.257Z,15.00
2022-11-04T07:45:05.901Z,16.23
2022-11-04T07:48:09.264Z,16.03
2022-11-04T07:51:14.767Z,15.57
2022-11-04T07:54:17.981Z,16.17
2022-11-04T07:57:22.362Z,15.93
2022-11-04T08:00:25.365Z,15.27
2022-11-04T08:03:28.331Z,15.43
2022-11-04T08:06:31.957Z,15.07
2022-11-04T08:09:36.549Z,15.20
2022-11-04T08:12:41.279Z,14.10
2022-11-04T08:15:44.012Z,14.43
2022-11-04T08:18:48.353Z,14.83
2022-11-04T08:21:51.833Z,12.90
2022-11-04T08:24:55.086Z,14.77
2022-11-04T08:28:01.129Z,14.23
2022-11-04T08:31:07.117Z,14.20
2022-11-04T08:34:10.454Z,13.83
2022-11-04T08:37:16.163Z,14.10
2022-11-04T08:40:18.999Z,14.47
2022-11-04T08:43:23.367Z,14.33
2022-11-04T08:46:26.154Z,13.83
2022-11-04T08:49:28.912Z,14.03
2022-11-04T08:52:31.733Z,13.40
2022-11-04T08:55:34.637Z,13.03
2022-11-04T08:58:39.012Z,13.10
2022-11-04T09:01:41.974Z,12.83
2022-11-04T09:04:44.922Z,12.00
2022-11-04T09:07:47.711Z,11.97
2022-11-04T09:10:50.512Z,11.40
2022-11-04T09:13:54.643Z,11.27
2022-11-04T09:16:57.449Z,10.63
2022-11-04T09:20:00.425Z,10.47
2022-11-04T09:23:03.951Z,10.70
2022-11-04T09:26:16.146Z,10.10
2022-11-04T09:29:20.511Z,10.53
2022-11-04T09:32:23.409Z,9.90
2022-11-04T09:35:27.436Z,10.83
2022-11-04T09:38:30.367Z,10.70
2022-11-04T09:41:51.506Z,10.53
2022-11-04T09:45:20.637Z,9.57
2022-11-04T09:48:32.613Z,10.03
2022-11-04T09:55:06.376Z,9.33
2022-11-04T09:58:12.810Z,9.97
2022-11-04T10:01:32.897Z,10.17
2022-11-04T10:04:48.778Z,9.27
2022-11-04T10:08:18.396Z,9.50
2022-11-04T10:11:29.512Z,10.10
2022-11-04T10:14:48.907Z,9.90
2022-11-04T10:18:07.647Z,9.77
2022-11-04T10:21:22.463Z,9.53
2022-11-04T10:24:36.879Z,9.77
2022-11-04T10:27:42.889Z,10.13
2022-11-04T10:30:48.170Z,9.27
2022-11-04T10:33:56.951Z,9.97
2022-11-04T10:37:00.080Z,9.53
2022-11-04T10:40:25.036Z,10.00
2022-11-04T10:43:32.479Z,9.70
2022-11-04T10:46:46.007Z,10.57
2022-11-04T10:53:34.193Z,9.23
2022-11-04T10:56:42.445Z,9.87
2022-11-04T10:59:52.780Z,10.03
2022-11-04T11:02:55.893Z,10.63
2022-11-04T11:06:22.946Z,11.33
2022-11-04T11:09:29.879Z,13.40
2022-11-04T11:12:55.875Z,13.00
2022-11-04T11:16:11.730Z,13.47
2022-11-04T11:19:18.751Z,13.27
2022-11-04T11:22:39.832Z,12.23
2022-11-04T11:25:50.522Z,11.37
2022-11-04T11:28:59.437Z,11.03
2022-11-04T11:32:02.604Z,10.33
2022-11-04T11:35:11.702Z,9.50
2022-11-04T11:38:22.350Z,9.77
2022-11-04T11:41:31.374Z,10.33
2022-11-04T11:44:42.198Z,9.97
2022-11-04T11:47:46.818Z,10.33
2022-11-04T11:50:58.753Z,10.93
2022-11-04T11:54:20.116Z,10.50
2022-11-04T11:57:36.896Z,10.73
2022-11-04T12:00:48.584Z,9.23
2022-11-04T12:11:02.099Z,10.90
2022-11-04T12:14:11.359Z,11.30
2022-11-04T12:17:25.612Z,10.87
2022-11-04T12:20:42.687Z,11.27
2022-11-04T12:23:53.281Z,11.97
2022-11-04T12:27:12.913Z,10.30
2022-11-04T12:30:23.727Z,11.47
2022-11-04T12:33:36.681Z,11.47
2022-11-04T12:37:00.680Z,13.63
2022-11-04T12:40:18.411Z,14.17
2022-11-04T12:43:30.216Z,13.37
2022-11-04T12:46:38.645Z,12.73
2022-11-04T12:50:23.059Z,13.70
2022-11-04T12:54:00.655Z,12.70
2022-11-04T12:57:16.324Z,14.47
2022-11-04T13:00:24.640Z,13.97
2022-11-04T13:03:33.675Z,13.50
2022-11-04T13:06:41.590Z,15.20
2022-11-04T13:09:47.895Z,15.23
2022-11-04T13:12:55.067Z,15.60
2022-11-04T13:16:07.161Z,15.83
2022-11-04T13:19:22.015Z,13.80
2022-11-04T13:22:28.175Z,13.30
2022-11-04T13:25:35.819Z,15.43
2022-11-04T13:28:41.703Z,13.23
2022-11-04T13:32:05.816Z,12.73
2022-11-04T13:35:19.934Z,11.70
2022-11-04T13:38:26.209Z,11.50
2022-11-04T13:41:41.268Z,11.60
2022-11-04T13:44:46.879Z,11.13
2022-11-04T13:47:53.320Z,10.23
2022-11-04T13:51:00.647Z,10.70
2022-11-04T13:54:04.250Z,10.83
2022-11-04T13:57:10.433Z,11.37
2022-11-04T14:00:25.624Z,11.50
2022-11-04T14:03:53.659Z,11.30
2022-11-04T14:06:59.524Z,11.60
2022-11-04T14:10:03.440Z,11.43
2022-11-04T14:13:44.828Z,11.37
2022-11-04T14:16:47.656Z,11.43
2022-11-04T14:19:59.674Z,11.63
2022-11-04T14:23:04.177Z,11.60
2022-11-04T14:26:10.235Z,12.00
2022-11-04T14:29:24.122Z,11.73
2022-11-04T14:32:32.273Z,11.73
2022-11-04T14:35:37.187Z,10.80
2022-11-04T14:38:40.422Z,11.47
2022-11-04T14:41:55.985Z,11.70
2022-11-04T14:45:00.836Z,12.90
2022-11-04T14:48:15.997Z,12.80
2022-11-04T14:51:27.730Z,15.13
2022-11-04T14:54:34.971Z,13.97
2022-11-04T14:57:39.249Z,12.63
2022-11-04T15:00:56.554Z,12.83
2022-11-04T15:04:11.956Z,12.53
2022-11-04T15:07:34.853Z,14.80
2022-11-04T15:10:37.713Z,12.60
2022-11-04T15:13:46.652Z,15.30
2022-11-04T15:16:53.484Z,14.60
2022-11-04T15:20:00.243Z,15.27
2022-11-04T15:23:08.531Z,13.90
2022-11-04T15:26:28.269Z,13.10
2022-11-04T15:29:33.885Z,12.47
2022-11-04T15:32:59.882Z,11.50
2022-11-04T15:36:03.016Z,11.17
2022-11-04T15:39:15.340Z,10.90
2022-11-04T15:42:40.093Z,10.30
2022-11-04T15:45:55.801Z,11.37
2022-11-04T15:49:05.536Z,10.00
2022-11-04T15:52:13.743Z,11.00
2022-11-04T15:55:23.805Z,11.07
2022-11-04T15:58:28.774Z,11.60
2022-11-04T16:01:32.817Z,11.40
2022-11-04T16:04:35.959Z,11.80
2022-11-04T16:07:40.525Z,11.60
2022-11-04T16:10:44.908Z,10.77
2022-11-04T16:13:48.612Z,11.60
2022-11-04T16:16:53.727Z,12.57
2022-11-04T16:19:59.722Z,11.07
2022-11-04T16:23:04.252Z,10.73
2022-11-04T16:26:08.642Z,10.83
2022-11-04T16:29:18.647Z,10.53
2022-11-04T16:32:26.994Z,10.93
2022-11-04T16:35:29.943Z,10.33
2022-11-04T16:38:32.902Z,10.80
2022-11-04T16:41:38.572Z,10.43
2022-11-04T16:44:41.694Z,11.47
2022-11-04T16:47:44.777Z,11.10
2022-11-04T16:50:48.960Z,11.40
2022-11-04T16:53:55.599Z,12.50
2022-11-04T16:57:06.870Z,11.53
2022-11-04T17:00:18.605Z,11.17
2022-11-04T17:03:22.235Z,11.27
2022-11-04T17:06:25.405Z,10.90
2022-11-04T17:09:34.250Z,11.37
2022-11-04T17:12:39.646Z,10.40
2022-11-04T17:15:49.602Z,11.57
2022-11-04T17:18:52.472Z,12.33
2022-11-04T17:21:55.677Z,11.10
2022-11-04T17:24:58.514Z,10.53
2022-11-04T17:28:02.649Z,12.30
2022-11-04T17:31:05.474Z,13.37
2022-11-04T17:34:09.391Z,13.63
2022-11-04T17:37:14.041Z,13.20
2022-11-04T17:40:18.722Z,14.23
2022-11-04T17:43:40.451Z,15.20
2022-11-04T17:46:47.548Z,16.37
2022-11-04T17:49:50.294Z,14.93
2022-11-04T17:52:53.115Z,15.77
2022-11-04T17:55:55.899Z,17.10
2022-11-04T17:59:02.148Z,16.87
2022-11-04T18:02:05.215Z,18.13
2022-11-04T18:05:09.300Z,16.70
2022-11-04T18:08:12.100Z,16.80
2022-11-04T18:11:36.591Z,16.43
2022-11-04T18:14:41.474Z,16.13
2022-11-04T18:17:45.488Z,14.23
2022-11-04T18:20:48.755Z,15.80
2022-11-04T18:23:51.567Z,17.30
2022-11-04T18:26:54.982Z,16.50
2022-11-04T18:29:59.103Z,17.27
2022-11-04T18:33:02.129Z,15.97
2022-11-04T18:36:06.229Z,17.40
2022-11-04T18:39:11.167Z,16.70
2022-11-04T18:42:14.081Z,18.33
2022-11-04T18:45:20.336Z,17.00
2022-11-04T18:48:23.202Z,17.33
2022-11-04T18:51:26.843Z,17.47
2022-11-04T18:54:34.130Z,14.93
2022-11-04T18:57:36.927Z,14.87
2022-11-04T19:00:41.101Z,15.93
2022-11-04T19:03:43.933Z,13.87
2022-11-04T19:06:50.821Z,13.70
2022-11-04T19:09:55.030Z,13.63
2022-11-04T19:13:15.189Z,12.97
2022-11-04T19:16:19.504Z,13.13
2022-11-04T19:19:22.282Z,12.63
2022-11-04T19:22:25.217Z,12.80
2022-11-04T19:25:28.195Z,12.80
2022-11-04T19:28:40.751Z,12.67
2022-11-04T19:31:51.440Z,12.90
2022-11-04T19:34:54.277Z,12.57
2022-11-04T19:37:57.211Z,13.07
2022-11-04T19:41:04.609Z,12.00
2022-11-04T19:44:08.404Z,12.03
2022-11-04T19:47:12.468Z,12.57
2022-11-04T19:50:16.558Z,12.53
2022-11-04T19:53:20.215Z,12.33
2022-11-04T19:56:24.197Z,12.53
2022-11-04T19:59:27.117Z,12.33
2022-11-04T20:02:31.340Z,12.13
2022-11-04T20:05:43.308Z,12.53
2022-11-04T20:08:48.826Z,13.17
2022-11-04T20:12:10.291Z,13.20
2022-11-04T20:15:13.076Z,13.40
2022-11-04T20:18:17.192Z,13.30
2022-11-04T20:21:21.725Z,13.00
2022-11-04T20:24:25.120Z,12.13
2022-11-04T20:27:27.926Z,13.80
2022-11-04T20:30:30.729Z,12.97
2022-11-04T20:33:37.286Z,13.53
2022-11-04T20:36:40.767Z,12.80
2022-11-04T20:39:46.449Z,13.27
2022-11-04T20:42:49.292Z,13.27
2022-11-04T20:45:52.661Z,14.07
2022-11-04T20:48:58.326Z,13.53
2022-11-04T20:52:01.924Z,13.60
2022-11-04T20:55:04.981Z,13.80
2022-11-04T20:58:07.931Z,13.67
2022-11-04T21:01:12.507Z,13.83
2022-11-04T21:04:19.400Z,12.63
2022-11-04T21:07:25.053Z,13.60
2022-11-04T21:10:27.837Z,13.20
2022-11-04T21:13:30.708Z,12.23
2022-11-04T21:16:35.518Z,12.73
2022-11-04T21:19:39.634Z,12.87
2022-11-04T21:22:42.494Z,13.17
2022-11-04T21:25:48.271Z,12.87
2022-11-04T21:28:54.994Z,12.97
2022-11-04T21:31:57.779Z,12.73
2022-11-04T21:35:03.692Z,13.13
2022-11-04T21:38:07.913Z,13.90
2022-11-04T21:41:12.823Z,12.53
2022-11-04T21:44:15.598Z,14.30
2022-11-04T21:47:18.438Z,13.67
2022-11-04T21:50:23.642Z,12.87
2022-11-04T21:53:26.416Z,12.93
2022-11-04T21:56:32.910Z,13.30
2022-11-04T21:59:35.770Z,13.20
2022-11-04T22:02:43.446Z,13.00
2022-11-04T22:05:56.681Z,14.07
2022-11-04T22:08:59.483Z,13.67
2022-11-04T22:12:02.331Z,12.87
2022-11-04T22:15:05.651Z,12.50
2022-11-04T22:18:08.646Z,12.90
2022-11-04T22:21:14.860Z,12.67
2022-11-04T22:24:19.478Z,12.43
2022-11-04T22:27:22.237Z,12.23
2022-11-04T22:30:25.050Z,13.23
2022-11-04T22:33:31.764Z,12.63
2022-11-04T22:36:36.765Z,13.27
2022-11-04T22:39:39.550Z,11.53
2022-11-04T22:42:43.594Z,13.83
2022-11-04T22:45:46.501Z,14.33
2022-11-04T22:48:50.523Z,14.07
2022-11-04T22:51:54.692Z,13.40
2022-11-04T22:54:57.505Z,13.40
2022-11-04T22:58:00.337Z,13.90
2022-11-04T23:01:05.313Z,14.37
2022-11-04T23:04:11.674Z,15.97
2022-11-04T23:07:16.102Z,15.20
2022-11-04T23:10:39.490Z,16.47
2022-11-04T23:14:08.323Z,16.97
2022-11-04T23:17:52.600Z,16.93
2022-11-04T23:21:09.417Z,16.53
2022-11-04T23:24:30.939Z,15.67
2022-11-04T23:27:52.004Z,15.93
2022-11-04T23:30:57.434Z,15.67
2022-11-04T23:34:18.135Z,16.77
2022-11-04T23:37:24.686Z,17.27
2022-11-04T23:40:29.898Z,16.63
2022-11-04T23:43:33.066Z,16.17
2022-11-04T23:46:53.473Z,15.93
2022-11-04T23:50:13.927Z,15.80
2022-11-04T23:53:47.930Z,14.90
2022-11-04T23:57:09.449Z,14.97
